Time;durP1;ratioP1;P1;durP2;ratioP2;P2;SDS_P1;SDS_P2;PMS_P1;PMS_P2;Temp;Humidity;BMP_temperature;BMP_pressure;BME280_temperature;BME280_humidity;BME280_pressure;Samples;Min_cycle;Max_cycle;Signal;HPM_P1;HPM_P2
2022/02/06 00:00:02;;;;;;;19.15;18.25;;;8.50;73.80;;;;;;4950788;29;20078;-86
2022/02/06 00:02:34;;;;;;;19.80;18.90;;;8.50;73.80;;;;;;4941455;29;20409;-86
2022/02/06 00:05:00;;;;;;;19.23;18.33;;;8.60;73.80;;;;;;4955713;29;20063;-86
2022/02/06 00:07:26;;;;;;;20.85;19.80;;;8.60;73.80;;;;;;4965708;28;20032;-86
2022/02/06 00:09:52;;;;;;;20.13;19.23;;;8.60;73.80;;;;;;4946572;29;20047;-86
2022/02/06 00:12:18;;;;;;;19.92;19.02;;;8.60;73.80;;;;;;4955892;29;20067;-86
2022/02/06 00:14:44;;;;;;;20.33;19.42;;;8.60;74.20;;;;;;4950355;29;20043;-86
2022/02/06 00:17:10;;;;;;;19.75;18.85;;;8.60;73.80;;;;;;4956404;28;20051;-86
2022/02/06 00:19:42;;;;;;;20.45;19.45;;;8.70;74.00;;;;;;4955438;29;20032;-86
2022/02/06 00:22:12;;;;;;;20.05;19.08;;;8.70;73.90;;;;;;4945582;29;20052;-86
2022/02/06 00:24:57;;;;;;;19.60;18.70;;;8.70;73.90;;;;;;4940809;29;20048;-86
2022/02/06 00:27:26;;;;;;;19.70;18.80;;;8.70;73.90;;;;;;4954513;28;20035;-86
2022/02/06 00:30:04;;;;;;;19.95;19.05;;;8.80;74.00;;;;;;4951716;28;20055;-86
2022/02/06 00:32:45;;;;;;;19.27;18.38;;;8.80;74.00;;;;;;4949121;29;20402;-87
2022/02/06 00:38:23;;;;;;;19.50;18.60;;;8.80;73.90;;;;;;4956249;28;20039;-86
2022/02/06 00:43:27;;;;;;;19.50;18.60;;;8.90;74.00;;;;;;4963103;28;20055;-86
2022/02/06 00:45:53;;;;;;;19.35;18.45;;;8.90;74.10;;;;;;4945557;28;20464;-87
2022/02/06 00:48:26;;;;;;;20.30;19.30;;;8.90;74.10;;;;;;4970122;28;20031;-87
2022/02/06 00:53:36;;;;;;;19.35;18.45;;;8.90;74.10;;;;;;4962447;28;20086;-86
2022/02/06 00:56:03;;;;;;;19.85;18.95;;;8.90;74.20;;;;;;4953700;29;20047;-87
2022/02/06 00:58:29;;;;;;;20.08;19.17;;;8.90;74.20;;;;;;4946795;29;20024;-86
2022/02/06 01:00:55;;;;;;;19.77;18.88;;;8.90;74.30;;;;;;4966494;28;20032;-87
2022/02/06 01:03:21;;;;;;;19.60;18.70;;;8.90;74.40;;;;;;4960509;28;20542;-87
2022/02/06 01:05:47;;;;;;;19.85;18.95;;;8.90;74.40;;;;;;4956103;29;20164;-87
2022/02/06 01:08:13;;;;;;;20.27;19.10;;;8.90;74.40;;;;;;4955100;29;20501;-86
2022/02/06 01:10:39;;;;;;;17.63;16.83;;;8.90;74.40;;;;;;4947914;29;20039;-86
2022/02/06 01:13:48;;;;;;;19.98;19.08;;;8.90;74.50;;;;;;4949591;29;20043;-87
2022/02/06 01:16:21;;;;;;;20.02;19.13;;;8.90;74.50;;;;;;4953474;28;20505;-86
2022/02/06 01:18:54;;;;;;;19.17;18.27;;;8.90;74.50;;;;;;4956474;28;20047;-86
2022/02/06 01:21:48;;;;;;;18.83;17.92;;;9.00;74.50;;;;;;4941330;29;20047;-86
2022/02/06 01:29:12;;;;;;;19.58;18.67;;;9.00;74.60;;;;;;4953998;28;20050;-87
2022/02/06 01:34:06;;;;;;;19.40;18.50;;;9.00;74.60;;;;;;4951384;28;20035;-87
2022/02/06 01:36:41;;;;;;;19.38;18.48;;;9.10;74.60;;;;;;4954841;28;20149;-87
2022/02/06 01:39:18;;;;;;;19.58;18.67;;;9.10;75.50;;;;;;4954518;28;20039;-86
2022/02/06 01:41:46;;;;;;;19.13;18.23;;;9.10;74.70;;;;;;4950079;29;20052;-86
2022/02/06 02:00:41;;;;;;;18.42;17.60;;;9.00;74.90;;;;;;4885670;29;20036;-86
2022/02/06 02:03:18;;;;;;;18.15;17.35;;;9.00;75.00;;;;;;4913872;29;20451;-87
2022/02/06 02:06:14;;;;;;;19.08;18.17;;;9.00;75.00;;;;;;4895988;29;20045;-86
2022/02/06 02:16:58;;;;;;;18.60;17.75;;;9.00;75.90;;;;;;4915599;29;20036;-86
2022/02/06 02:27:15;;;;;;;18.75;17.85;;;9.00;75.20;;;;;;4959974;28;20521;-86
2022/02/06 02:30:25;;;;;;;19.15;18.25;;;9.00;75.20;;;;;;4938992;28;20048;-86
2022/02/06 02:48:24;;;;;;;18.67;17.77;;;9.00;75.30;;;;;;4957160;28;20042;-86
2022/02/06 02:51:00;;;;;;;19.05;18.15;;;9.00;75.40;;;;;;4953371;29;20383;-86
2022/02/06 02:53:44;;;;;;;18.38;17.58;;;9.00;75.40;;;;;;4941704;29;20043;-86
2022/02/06 03:01:09;;;;;;;17.98;17.17;;;9.00;75.70;;;;;;4944388;28;20059;-86
2022/02/06 03:03:37;;;;;;;18.05;17.25;;;9.00;75.70;;;;;;4961546;28;20414;-86
2022/02/06 03:06:05;;;;;;;18.77;17.88;;;9.00;75.70;;;;;;4948268;28;20430;-87
2022/02/06 03:08:33;;;;;;;18.98;17.88;;;9.00;75.70;;;;;;4944670;29;20046;-87
2022/02/06 03:11:02;;;;;;;17.65;16.85;;;9.10;75.70;;;;;;4948548;29;20046;-88
2022/02/06 03:14:41;;;;;;;18.45;17.65;;;9.10;75.70;;;;;;4963092;28;20529;-87
2022/02/06 03:16:27;;;;;;;18.50;17.70;;;9.10;75.70;;;;;;4940791;28;20043;-87
2022/02/06 03:21:25;;;;;;;18.48;17.65;;;9.10;75.80;;;;;;4950918;28;20032;-87
2022/02/06 03:23:54;;;;;;;18.42;17.63;;;9.10;75.70;;;;;;4937909;29;20598;-87
2022/02/06 03:26:22;;;;;;;18.73;17.83;;;9.10;75.70;;;;;;4948875;29;20054;-87
2022/02/06 03:28:48;;;;;;;18.10;17.30;;;9.10;75.70;;;;;;4946251;29;20035;-87
2022/02/06 03:31:14;;;;;;;18.30;17.50;;;9.20;75.80;;;;;;4947571;28;20050;-87
2022/02/06 03:33:41;;;;;;;18.42;17.63;;;9.10;75.80;;;;;;4949111;29;20521;-87
2022/02/06 03:36:07;;;;;;;19.40;18.50;;;9.20;75.80;;;;;;4946600;28;20051;-87
2022/02/06 03:38:34;;;;;;;17.92;17.13;;;9.20;75.80;;;;;;4935957;29;20050;-86
2022/02/06 03:41:07;;;;;;;18.48;17.65;;;9.20;75.80;;;;;;4952252;28;20047;-87
2022/02/06 03:46:44;;;;;;;18.23;17.42;;;9.30;75.90;;;;;;4953849;28;20054;-86
2022/02/06 03:49:14;;;;;;;19.23;18.33;;;9.30;75.90;;;;;;4960978;28;20383;-87
2022/02/06 03:51:40;;;;;;;18.67;17.77;;;9.30;75.80;;;;;;4941468;29;20051;-87
2022/02/06 03:54:08;;;;;;;18.88;17.98;;;9.30;75.90;;;;;;4955351;28;20040;-86
2022/02/06 03:56:34;;;;;;;18.67;17.80;;;9.40;75.90;;;;;;4953377;28;20058;-87
2022/02/06 03:59:01;;;;;;;18.90;17.85;;;9.40;75.90;;;;;;4951423;29;20038;-86
2022/02/06 04:01:28;;;;;;;18.38;17.48;;;9.40;75.90;;;;;;4963858;28;20039;-86
2022/02/06 04:03:54;;;;;;;18.13;17.33;;;9.40;75.90;;;;;;4952386;29;20047;-87
2022/02/06 04:06:20;;;;;;;18.30;17.50;;;9.40;75.90;;;;;;4941411;29;20095;-87
2022/02/06 04:08:47;;;;;;;18.30;17.50;;;9.40;76.00;;;;;;4952682;29;20031;-87
2022/02/06 04:11:18;;;;;;;17.83;17.02;;;9.40;76.00;;;;;;4952988;29;20047;-87
2022/02/06 04:14:07;;;;;;;18.75;17.85;;;9.40;76.00;;;;;;4947801;29;20024;-87
2022/02/06 04:16:48;;;;;;;18.55;17.73;;;9.40;76.00;;;;;;4950817;28;20036;-86
2022/02/06 04:19:18;;;;;;;18.80;17.90;;;9.50;76.80;;;;;;4957650;28;20054;-86
2022/02/06 04:21:44;;;;;;;18.33;17.52;;;9.50;76.10;;;;;;4953127;28;20039;-86
2022/02/06 04:24:11;;;;;;;18.30;17.50;;;9.50;76.10;;;;;;4942395;29;20047;-87
2022/02/06 04:26:37;;;;;;;18.48;17.67;;;9.50;76.10;;;;;;4949566;29;20406;-87
2022/02/06 04:29:04;;;;;;;18.50;17.60;;;9.50;76.10;;;;;;4952275;28;20032;-87
2022/02/06 04:31:31;;;;;;;19.13;18.23;;;9.50;76.10;;;;;;4951157;28;20039;-89
2022/02/06 04:33:57;;;;;;;18.20;17.40;;;9.50;76.10;;;;;;4950496;28;20027;-87
2022/02/06 04:36:29;;;;;;;18.60;17.73;;;9.50;76.20;;;;;;4958483;28;20067;-86
2022/02/06 04:41:49;;;;;;;18.40;17.60;;;9.60;76.20;;;;;;4949361;29;20054;-86
2022/02/06 05:17:21;;;;;;;19.10;18.20;;;9.80;76.30;;;;;;4912771;29;20499;-88
2022/02/06 05:27:46;;;;;;;18.90;18.00;;;9.90;76.40;;;;;;4856365;29;20482;-87
2022/02/06 05:30:16;;;;;;;18.92;18.02;;;9.90;76.40;;;;;;4858030;29;20060;-88
2022/02/06 05:32:59;;;;;;;19.15;18.25;;;9.90;76.40;;;;;;4855563;29;20045;-87
2022/02/06 05:35:26;;;;;;;19.55;18.42;;;9.90;76.30;;;;;;4866495;29;20042;-87
2022/02/06 05:37:52;;;;;;;19.42;18.52;;;10.00;76.40;;;;;;4871902;29;20054;-87
2022/02/06 05:40:18;;;;;;;19.00;18.10;;;10.00;76.30;;;;;;4858062;29;20029;-87
2022/02/06 05:42:44;;;;;;;18.48;17.65;;;10.00;76.40;;;;;;4877096;29;20063;-86
2022/02/06 05:45:11;;;;;;;19.38;18.48;;;10.00;76.30;;;;;;4862148;29;20066;-87
2022/02/06 05:47:37;;;;;;;18.65;17.77;;;10.00;76.40;;;;;;4876245;29;20048;-87
2022/02/06 05:50:04;;;;;;;18.85;17.95;;;10.00;77.10;;;;;;4885411;29;20047;-87
2022/02/06 05:52:30;;;;;;;18.95;18.05;;;10.10;76.40;;;;;;4875563;29;20052;-89
2022/02/06 05:54:57;;;;;;;21.15;20.15;;;10.10;76.40;;;;;;4858009;29;20037;-90
2022/02/06 05:57:23;;;;;;;19.33;18.42;;;10.10;76.50;;;;;;4863466;29;20037;-86
2022/02/06 05:59:50;;;;;;;18.88;17.98;;;10.10;76.50;;;;;;4875695;29;20408;-87
2022/02/06 06:02:17;;;;;;;19.55;18.65;;;10.10;76.40;;;;;;4881989;29;20040;-88
2022/02/06 06:04:43;;;;;;;19.63;18.73;;;10.20;76.60;;;;;;4921128;29;20043;-87
2022/02/06 06:07:09;;;;;;;19.58;18.67;;;10.10;76.50;;;;;;4963687;28;20039;-87
2022/02/06 06:09:35;;;;;;;19.30;18.40;;;10.20;76.60;;;;;;4967989;28;20032;-86
2022/02/06 06:12:01;;;;;;;19.63;18.73;;;10.20;76.50;;;;;;4947312;29;20031;-86
2022/02/06 06:14:31;;;;;;;20.50;19.50;;;10.20;76.50;;;;;;4951423;29;20502;-87
2022/02/06 06:16:57;;;;;;;19.13;18.23;;;10.20;76.50;;;;;;4949753;28;20028;-86
2022/02/06 06:19:23;;;;;;;19.70;18.80;;;10.20;76.60;;;;;;4954138;28;20043;-88
2022/02/06 06:21:55;;;;;;;20.60;19.70;;;10.20;76.60;;;;;;4951530;28;20413;-88
2022/02/06 06:24:22;;;;;;;;;;;10.30;76.70;;;;;;4952220;28;20494;-88
2022/02/06 06:26:48;;;;;;;19.73;18.83;;;10.20;76.60;;;;;;4952122;29;19926;-88
2022/02/06 06:29:14;;;;;;;19.13;18.23;;;10.20;76.60;;;;;;4950345;28;20493;-87
2022/02/06 06:31:41;;;;;;;19.60;18.70;;;10.30;76.60;;;;;;4951228;28;20028;-86
2022/02/06 06:34:07;;;;;;;22.55;21.55;;;10.20;76.60;;;;;;4953575;28;20041;-86
2022/02/06 06:36:35;;;;;;;19.55;18.65;;;10.20;76.60;;;;;;4952990;28;20038;-88
2022/02/06 06:39:02;;;;;;;19.77;18.77;;;10.30;76.60;;;;;;4950316;28;20496;-90
2022/02/06 06:41:28;;;;;;;19.90;19.00;;;10.30;76.70;;;;;;4952637;28;20478;-89
2022/02/06 06:43:54;;;;;;;20.10;19.20;;;10.30;76.70;;;;;;4952704;28;20042;-92
2022/02/06 06:46:20;;;;;;;19.73;18.83;;;10.20;76.70;;;;;;4946447;28;20422;-88
2022/02/06 06:48:46;;;;;;;19.35;18.45;;;10.20;76.70;;;;;;4943746;29;20031;-88
2022/02/06 06:51:13;;;;;;;20.23;19.23;;;10.20;76.70;;;;;;4950499;29;20518;-88
2022/02/06 06:53:42;;;;;;;19.90;19.00;;;10.30;76.80;;;;;;4953697;29;20027;-87
2022/02/06 06:56:15;;;;;;;19.75;18.85;;;10.30;76.80;;;;;;4951846;29;20040;-88
2022/02/06 06:58:47;;;;;;;20.40;19.40;;;10.20;76.70;;;;;;4951175;29;20023;-88
2022/02/06 07:03:45;;;;;;;19.27;18.38;;;10.30;76.80;;;;;;4953585;28;20046;-87
2022/02/06 07:06:12;;;;;;;20.02;19.13;;;10.30;76.90;;;;;;4951575;28;20047;-87
2022/02/06 07:08:38;;;;;;;20.60;19.60;;;10.30;76.80;;;;;;4941997;29;20039;-89
2022/02/06 07:11:04;;;;;;;18.85;17.98;;;10.30;76.80;;;;;;4964685;28;20035;-89
2022/02/06 07:13:30;;;;;;;19.60;18.70;;;10.20;76.80;;;;;;4950761;29;20035;-87
2022/02/06 07:15:56;;;;;;;19.25;18.35;;;10.30;76.90;;;;;;4949580;28;20054;-89
2022/02/06 07:18:22;;;;;;;20.35;19.02;;;10.30;76.90;;;;;;4951466;29;20482;-87
2022/02/06 07:20:49;;;;;;;19.65;18.75;;;10.30;76.90;;;;;;4952712;29;20406;-89
2022/02/06 07:23:15;;;;;;;20.55;19.45;;;10.30;76.90;;;;;;4951613;29;20042;-88
2022/02/06 07:25:45;;;;;;;19.45;18.30;;;10.30;76.90;;;;;;4948116;28;20054;-84
2022/02/06 07:28:16;;;;;;;19.42;18.52;;;10.30;76.90;;;;;;4959646;28;20062;-85
2022/02/06 07:30:43;;;;;;;19.48;18.58;;;10.30;76.90;;;;;;4947951;28;20778;-85
2022/02/06 07:33:11;;;;;;;21.33;20.00;;;10.30;76.90;;;;;;4961054;28;20035;-86
2022/02/06 07:35:38;;;;;;;19.10;18.20;;;10.30;76.90;;;;;;4954400;28;20043;-84
2022/02/06 07:38:04;;;;;;;18.30;17.50;;;10.30;77.00;;;;;;4951574;28;20042;-84
2022/02/06 07:40:30;;;;;;;18.65;17.80;;;10.30;77.00;;;;;;4951608;28;20031;-83
2022/02/06 07:42:56;;;;;;;19.73;18.83;;;10.40;77.00;;;;;;4933450;29;20031;-83
2022/02/06 07:45:23;;;;;;;19.63;18.73;;;10.40;77.00;;;;;;4965065;28;20046;-84
2022/02/06 07:47:49;;;;;;;19.20;18.30;;;10.40;77.00;;;;;;4952139;28;20039;-84
2022/02/06 07:50:15;;;;;;;19.33;18.42;;;10.40;77.00;;;;;;4953184;29;20031;-83
2022/02/06 07:52:42;;;;;;;19.23;18.33;;;10.40;77.00;;;;;;4964942;28;20054;-82
2022/02/06 07:55:09;;;;;;;19.48;18.58;;;10.40;77.00;;;;;;4951942;29;20035;-82
2022/02/06 07:57:35;;;;;;;20.20;19.10;;;10.40;76.90;;;;;;4950249;29;20382;-84
2022/02/06 08:00:02;;;;;;;19.17;18.27;;;10.40;76.90;;;;;;4951347;29;20050;-84
2022/02/06 08:02:28;;;;;;;19.08;18.17;;;10.40;76.90;;;;;;4951489;29;20055;-84
2022/02/06 08:04:56;;;;;;;19.00;18.10;;;10.40;76.90;;;;;;4947357;29;20027;-82
2022/02/06 08:07:22;;;;;;;19.10;18.20;;;10.50;77.00;;;;;;4955682;28;20082;-82
2022/02/06 08:09:57;;;;;;;19.38;18.48;;;10.50;77.00;;;;;;4952443;28;20039;-82
2022/02/06 08:12:32;;;;;;;18.70;17.80;;;10.50;77.00;;;;;;4957302;28;20055;-83
2022/02/06 08:15:02;;;;;;;18.85;17.95;;;10.50;77.10;;;;;;4951472;29;20038;-82
2022/02/06 08:17:30;;;;;;;19.55;18.65;;;10.50;77.20;;;;;;4951596;28;20042;-83
2022/02/06 08:19:59;;;;;;;18.92;18.02;;;10.50;77.10;;;;;;4968686;28;20042;-83
2022/02/06 08:22:25;;;;;;;18.77;17.88;;;10.50;77.10;;;;;;4954084;29;20482;-82
2022/02/06 08:24:51;;;;;;;19.00;18.10;;;10.60;77.20;;;;;;4956919;28;20050;-82
2022/02/06 08:27:18;;;;;;;19.05;18.08;;;10.50;77.10;;;;;;4969626;28;20409;-82
2022/02/06 08:29:46;;;;;;;19.65;18.75;;;10.60;77.20;;;;;;4955321;29;20030;-83
2022/02/06 08:32:13;;;;;;;19.63;18.73;;;10.60;77.20;;;;;;4951411;28;20035;-84
2022/02/06 08:34:39;;;;;;;19.45;18.55;;;10.60;77.20;;;;;;4955021;28;20035;-84
2022/02/06 08:37:06;;;;;;;19.58;18.67;;;10.60;77.10;;;;;;4955616;29;20027;-85
2022/02/06 08:39:33;;;;;;;20.10;19.00;;;10.60;77.20;;;;;;4955000;28;20171;-83
2022/02/06 08:41:59;;;;;;;19.77;18.88;;;10.60;77.20;;;;;;4955570;29;20046;-83
2022/02/06 08:44:26;;;;;;;19.00;18.10;;;10.70;78.00;;;;;;4950267;29;20042;-84
2022/02/06 08:46:52;;;;;;;19.67;18.77;;;10.70;77.20;;;;;;4965018;28;20036;-83
2022/02/06 08:49:18;;;;;;;20.13;19.23;;;10.70;77.20;;;;;;4953834;29;20042;-84
2022/02/06 08:51:45;;;;;;;19.48;18.58;;;10.70;77.30;;;;;;4953066;28;20406;-86
2022/02/06 08:54:11;;;;;;;20.02;19.13;;;10.70;77.30;;;;;;4951421;28;20051;-85
2022/02/06 08:56:40;;;;;;;19.48;18.58;;;10.80;77.40;;;;;;4952307;29;20043;-84
2022/02/06 08:59:07;;;;;;;19.33;18.42;;;10.80;77.30;;;;;;4951118;29;20039;-82
2022/02/06 09:01:34;;;;;;;19.27;18.38;;;10.80;77.30;;;;;;4950893;28;20421;-82
2022/02/06 09:04:00;;;;;;;19.30;18.40;;;10.80;77.30;;;;;;4954287;29;20040;-83
2022/02/06 09:06:27;;;;;;;20.20;19.30;;;10.80;77.30;;;;;;4951733;29;20055;-84
2022/02/06 09:08:56;;;;;;;19.35;18.45;;;10.90;77.30;;;;;;4953526;29;20031;-85
2022/02/06 09:11:23;;;;;;;19.30;18.40;;;10.90;77.30;;;;;;4936387;29;20051;-85
2022/02/06 09:13:50;;;;;;;19.38;18.48;;;10.90;77.40;;;;;;4954026;29;20038;-85
2022/02/06 09:16:16;;;;;;;20.55;19.65;;;10.90;77.30;;;;;;4952053;29;20036;-88
2022/02/06 09:18:42;;;;;;;20.38;19.48;;;10.90;77.30;;;;;;4952316;28;20058;-87
2022/02/06 09:21:08;;;;;;;19.88;18.98;;;11.00;77.40;;;;;;4938008;29;20048;-88
2022/02/06 09:23:34;;;;;;;20.00;19.10;;;11.00;77.40;;;;;;4952359;29;20414;-85
2022/02/06 09:26:01;;;;;;;20.85;19.80;;;11.00;77.40;;;;;;4950045;29;20031;-84
2022/02/06 09:28:27;;;;;;;20.35;19.45;;;11.00;77.40;;;;;;4950571;28;20046;-85
2022/02/06 09:30:53;;;;;;;20.73;19.73;;;11.00;77.40;;;;;;4951045;28;20043;-84
2022/02/06 09:35:45;;;;;;;20.02;19.13;;;11.00;77.40;;;;;;4951049;28;20039;-85
2022/02/06 09:38:11;;;;;;;19.77;18.88;;;11.00;78.20;;;;;;4951558;29;20051;-85
2022/02/06 09:40:39;;;;;;;20.02;19.13;;;11.10;77.50;;;;;;4953900;28;20035;-84
2022/02/06 09:43:05;;;;;;;19.90;19.00;;;11.10;77.50;;;;;;4949848;29;20058;-85
2022/02/06 09:45:33;;;;;;;19.65;18.75;;;11.10;77.50;;;;;;4951384;28;20501;-85
2022/02/06 09:48:03;;;;;;;20.20;19.30;;;11.20;77.60;;;;;;4947279;29;20056;-85
2022/02/06 09:50:29;;;;;;;20.13;19.23;;;11.20;77.50;;;;;;4968423;28;20497;-86
2022/02/06 09:52:55;;;;;;;20.02;19.13;;;11.20;77.50;;;;;;4948092;28;20054;-85
2022/02/06 09:55:22;;;;;;;20.25;19.35;;;11.20;77.50;;;;;;4945632;29;20129;-84
2022/02/06 10:00:23;;;;;;;19.75;18.85;;;11.30;77.40;;;;;;4955960;28;20043;-82
2022/02/06 10:02:50;;;;;;;;;;;11.40;77.50;;;;;;4954685;28;20039;-82
2022/02/06 10:05:16;;;;;;;19.23;18.33;;;11.40;77.40;;;;;;4968437;28;20333;-82
2022/02/06 10:07:52;;;;;;;20.65;19.52;;;11.50;77.30;;;;;;4947260;29;20047;-84
2022/02/06 10:10:18;;;;;;;20.80;19.80;;;11.50;77.20;;;;;;4942873;29;20039;-84
2022/02/06 10:12:45;;;;;;;21.63;20.42;;;11.60;77.30;;;;;;4950064;29;20027;-84
2022/02/06 10:15:20;;;;;;;20.40;19.50;;;11.60;78.00;;;;;;4950466;28;20411;-85
2022/02/06 10:17:47;;;;;;;21.27;20.27;;;11.60;77.20;;;;;;4949857;29;20043;-85
2022/02/06 10:20:15;;;;;;;21.55;20.55;;;11.60;77.10;;;;;;4952012;29;20051;-85
2022/02/06 10:22:51;;;;;;;22.00;21.00;;;11.70;77.20;;;;;;4949303;29;20023;-85
2022/02/06 10:25:17;;;;;;;21.90;20.90;;;11.70;77.10;;;;;;4949815;29;20034;-85
2022/02/06 10:27:54;;;;;;;22.27;21.20;;;11.70;77.10;;;;;;4963921;28;20032;-85
2022/02/06 10:30:41;;;;;;;22.67;21.45;;;11.80;77.10;;;;;;4964862;28;20386;-86
2022/02/06 10:33:18;;;;;;;21.73;20.73;;;11.80;77.10;;;;;;4950715;29;20038;-85
2022/02/06 10:35:47;;;;;;;22.48;21.48;;;11.80;77.10;;;;;;4950090;28;20402;-83
2022/02/06 10:38:13;;;;;;;23.17;22.10;;;11.80;77.10;;;;;;4951227;29;20034;-85
2022/02/06 10:40:40;;;;;;;22.63;21.63;;;11.90;77.10;;;;;;4951124;28;20036;-83
2022/02/06 10:43:10;;;;;;;23.65;22.55;;;11.90;77.10;;;;;;4950334;29;20031;-83
2022/02/06 10:45:37;;;;;;;22.80;21.70;;;11.90;77.10;;;;;;4949885;28;20046;-88
2022/02/06 10:48:04;;;;;;;23.02;21.92;;;11.90;77.10;;;;;;4966931;28;20043;-84
2022/02/06 10:50:31;;;;;;;22.73;21.73;;;11.90;77.10;;;;;;4943613;29;20391;-88
2022/02/06 10:53:11;;;;;;;23.00;21.90;;;11.90;77.10;;;;;;4945422;29;20043;-86
2022/02/06 10:55:58;;;;;;;23.20;22.10;;;11.90;77.20;;;;;;4960678;28;20034;-88
2022/02/06 10:58:28;;;;;;;23.25;22.15;;;11.90;77.30;;;;;;4945967;29;20035;-87
2022/02/06 11:00:54;;;;;;;23.05;21.95;;;11.90;77.30;;;;;;4950030;28;20039;-89
2022/02/06 11:03:35;;;;;;;23.38;22.27;;;11.90;77.40;;;;;;4948114;29;20043;-85
2022/02/06 11:06:10;;;;;;;23.17;22.07;;;11.90;77.40;;;;;;4951579;29;20038;-87
2022/02/06 11:08:37;;;;;;;22.88;21.83;;;11.90;77.40;;;;;;4967552;28;20310;-88
2022/02/06 11:11:04;;;;;;;22.55;21.55;;;11.90;77.40;;;;;;4952366;28;20356;-89
2022/02/06 11:13:32;;;;;;;23.00;21.90;;;11.90;77.50;;;;;;4949275;29;20035;-87
2022/02/06 11:16:01;;;;;;;22.90;21.83;;;11.90;77.50;;;;;;4959617;28;20035;-86
2022/02/06 11:18:39;;;;;;;22.85;21.75;;;11.90;77.50;;;;;;4949101;29;20128;-88
2022/02/06 11:21:06;;;;;;;22.40;21.40;;;11.90;77.50;;;;;;4951655;28;20050;-86
2022/02/06 11:23:40;;;;;;;21.67;20.67;;;11.90;77.60;;;;;;4952215;29;20031;-86
2022/02/06 11:26:11;;;;;;;21.20;20.20;;;11.90;77.60;;;;;;4943605;29;20506;-85
2022/02/06 11:28:37;;;;;;;22.23;21.23;;;11.90;77.60;;;;;;4942066;29;20043;-84
2022/02/06 11:31:04;;;;;;;22.38;21.38;;;11.90;77.60;;;;;;4947626;28;20047;-86
2022/02/06 11:33:30;;;;;;;22.42;21.42;;;11.90;77.60;;;;;;4948550;29;20038;-86
2022/02/06 11:36:00;;;;;;;22.48;21.48;;;11.90;77.60;;;;;;4951417;29;20032;-88
2022/02/06 11:44:13;;;;;;;22.48;21.45;;;12.00;77.60;;;;;;4950851;28;20042;-84
2022/02/06 11:46:51;;;;;;;22.13;21.13;;;12.00;77.50;;;;;;4944552;28;20040;-86
2022/02/06 11:49:17;;;;;;;22.00;21.00;;;12.00;77.50;;;;;;4938919;29;20046;-82
2022/02/06 11:51:56;;;;;;;22.15;21.15;;;12.10;77.50;;;;;;4950828;29;20043;-87
2022/02/06 11:54:57;;;;;;;21.98;20.98;;;12.20;77.50;;;;;;4952580;28;20498;-88
2022/02/06 11:57:25;;;;;;;22.93;21.83;;;12.20;77.50;;;;;;4938713;29;20022;-87
2022/02/06 12:00:06;;;;;;;22.05;21.05;;;12.30;77.40;;;;;;4941062;29;20275;-86
2022/02/06 12:02:32;;;;;;;;;;;12.30;77.30;;;;;;4948563;28;20401;-88
2022/02/06 12:05:27;;;;;;;22.45;21.33;;;12.40;77.10;;;;;;4943964;29;19911;-80
2022/02/06 12:07:53;;;;;;;22.45;21.45;;;12.50;77.00;;;;;;4947965;28;20051;-84
2022/02/06 12:10:20;;;;;;;22.10;21.10;;;12.60;77.00;;;;;;4951935;29;20035;-84
2022/02/06 12:12:49;;;;;;;23.08;21.98;;;12.60;76.80;;;;;;4962905;28;20027;-83
2022/02/06 12:15:31;;;;;;;22.23;21.13;;;12.70;76.80;;;;;;4940326;28;20026;-82
2022/02/06 12:18:10;;;;;;;22.45;21.35;;;12.80;76.80;;;;;;4949856;29;20046;-81
2022/02/06 12:20:49;;;;;;;24.08;22.98;;;12.90;76.60;;;;;;4965087;28;20049;-80
2022/02/06 12:23:34;;;;;;;24.73;23.63;;;12.90;76.60;;;;;;4951065;29;20051;-80
2022/02/06 12:26:00;;;;;;;26.83;25.35;;;12.90;76.60;;;;;;4957155;28;20035;-80
2022/02/06 12:28:30;;;;;;;26.40;25.08;;;12.80;76.60;;;;;;4956316;28;20055;-80
2022/02/06 12:31:14;;;;;;;26.15;24.95;;;12.80;76.70;;;;;;4955112;28;20032;-82
2022/02/06 12:33:51;;;;;;;30.23;28.77;;;12.70;76.80;;;;;;4939249;29;20363;-81
2022/02/06 12:39:33;;;;;;;25.95;24.65;;;12.70;77.00;;;;;;4943238;28;20042;-80
2022/02/06 12:42:00;;;;;;;25.02;23.83;;;12.70;77.00;;;;;;4950261;29;20533;-80
2022/02/06 12:44:27;;;;;;;24.98;23.80;;;12.70;77.00;;;;;;4947271;29;20463;-81
2022/02/06 12:46:57;;;;;;;25.25;24.08;;;12.70;77.00;;;;;;4954463;28;20035;-82
2022/02/06 12:49:30;;;;;;;23.77;22.65;;;12.60;77.10;;;;;;4946540;29;20027;-83
2022/02/06 12:51:57;;;;;;;23.83;22.73;;;12.60;77.10;;;;;;4964602;28;20043;-79
2022/02/06 12:54:23;;;;;;;23.10;22.00;;;12.70;77.10;;;;;;4948579;29;20050;-81
2022/02/06 12:56:54;;;;;;;24.70;23.50;;;12.70;77.10;;;;;;4949545;29;20043;-82
2022/02/06 12:59:21;;;;;;;23.53;22.43;;;12.70;77.00;;;;;;4941326;29;20036;-82
2022/02/06 13:01:48;;;;;;;23.08;21.98;;;12.70;77.00;;;;;;4946911;28;20023;-81
2022/02/06 13:04:18;;;;;;;23.20;22.13;;;12.80;76.90;;;;;;4965187;28;20036;-81
2022/02/06 13:06:48;;;;;;;24.73;23.63;;;12.90;76.90;;;;;;4944115;29;20039;-81
2022/02/06 13:09:27;;;;;;;23.85;22.75;;;12.90;76.80;;;;;;4941229;28;20586;-81
2022/02/06 13:20:47;;;;;;;1506.63;756.28;;;13.20;76.50;;;;;;4911891;29;20064;-80
2022/02/06 13:26:12;;;;;;;1506.57;756.28;;;13.20;76.50;;;;;;4904746;29;20048;-81
2022/02/06 13:31:35;;;;;;;1506.75;756.42;;;13.20;76.60;;;;;;4901508;29;20551;-82
2022/02/06 13:34:38;;;;;;;1999.90;999.90;;;13.30;76.70;;;;;;4902663;29;20510;-82
2022/02/06 13:37:05;;;;;;;1999.90;999.90;;;13.30;76.70;;;;;;4898962;29;20047;-81
2022/02/06 13:39:37;;;;;;;1999.90;999.90;;;13.30;76.70;;;;;;4892637;29;20495;-81
2022/02/06 13:42:11;;;;;;;1999.90;999.90;;;13.30;76.70;;;;;;4910996;29;20060;-81
2022/02/06 13:44:37;;;;;;;1999.90;999.90;;;13.40;76.70;;;;;;4900038;29;20040;-82
2022/02/06 13:47:05;;;;;;;27.73;26.33;;;13.40;76.70;;;;;;4899510;29;20036;-81
2022/02/06 13:49:42;;;;;;;1506.47;756.17;;;13.40;76.60;;;;;;4898406;29;20070;-81
2022/02/06 13:52:09;;;;;;;1999.90;999.90;;;13.40;76.70;;;;;;4931383;29;20055;-81
2022/02/06 13:54:41;;;;;;;1999.90;999.90;;;13.40;76.70;;;;;;4956658;28;20039;-81
2022/02/06 13:57:07;;;;;;;26.67;25.48;;;13.50;76.80;;;;;;4938903;28;20383;-82
2022/02/06 13:59:41;;;;;;;1506.90;756.58;;;13.50;76.80;;;;;;4953662;29;20031;-81
2022/02/06 14:02:08;;;;;;;26.63;25.42;;;13.50;76.80;;;;;;4958491;28;20502;-81
2022/02/06 14:04:37;;;;;;;1999.90;999.90;;;13.50;76.80;;;;;;4957664;28;20043;-82
2022/02/06 14:07:09;;;;;;;1506.68;756.35;;;13.50;76.80;;;;;;4953845;29;20390;-82
2022/02/06 14:12:23;;;;;;;1999.90;999.90;;;13.50;76.80;;;;;;4958517;28;20042;-82
2022/02/06 14:14:54;;;;;;;1999.90;999.90;;;13.60;76.80;;;;;;4951453;28;20061;-82
2022/02/06 14:17:35;;;;;;;1999.90;999.90;;;13.50;76.70;;;;;;4952571;28;20044;-82
2022/02/06 14:20:12;;;;;;;1999.90;999.90;;;13.60;76.80;;;;;;4968149;28;20042;-82
2022/02/06 14:22:43;;;;;;;1999.90;999.90;;;13.60;76.70;;;;;;4958475;28;20604;-81
2022/02/06 14:25:15;;;;;;;1999.90;999.90;;;13.70;76.60;;;;;;4957753;28;20043;-81
2022/02/06 14:27:42;;;;;;;1999.90;999.90;;;13.70;76.60;;;;;;4938759;29;20098;-81
2022/02/06 14:30:21;;;;;;;1999.90;999.90;;;13.70;76.50;;;;;;4937815;28;20031;-81
2022/02/06 14:33:09;;;;;;;1999.90;999.90;;;13.70;76.50;;;;;;4950957;29;20024;-81
2022/02/06 14:35:47;;;;;;;1999.90;999.90;;;13.70;76.50;;;;;;4947149;29;20518;-81
2022/02/06 14:41:59;;;;;;;1999.90;999.90;;;13.80;76.70;;;;;;4951610;28;20494;-81
2022/02/06 14:44:08;;;;;;;;;;;13.80;76.40;;;;;;4950732;28;20054;-81
2022/02/06 14:46:35;;;;;;;1999.90;999.90;;;13.80;76.40;;;;;;4953646;28;19916;-81
2022/02/06 14:49:06;;;;;;;1999.90;999.90;;;13.80;76.20;;;;;;4966471;28;20703;-81
2022/02/06 14:51:33;;;;;;;1999.90;999.90;;;13.80;77.00;;;;;;4953665;28;20047;-81
2022/02/06 14:54:00;;;;;;;1999.90;999.90;;;13.80;76.30;;;;;;4966943;28;20050;-82
2022/02/06 14:56:28;;;;;;;1999.90;999.90;;;13.80;76.30;;;;;;4950077;29;20027;-82
2022/02/06 14:58:54;;;;;;;1999.90;999.90;;;13.80;76.30;;;;;;4951553;29;20494;-82
2022/02/06 15:01:20;;;;;;;1999.90;999.90;;;13.80;76.40;;;;;;4952442;28;20430;-83
2022/02/06 15:03:47;;;;;;;1999.90;999.90;;;13.90;76.30;;;;;;4966518;28;20038;-82
2022/02/06 15:06:13;;;;;;;1999.90;999.90;;;13.80;76.20;;;;;;4938116;29;20046;-82
2022/02/06 15:08:39;;;;;;;1999.90;999.90;;;13.80;76.20;;;;;;4945835;29;20043;-82
2022/02/06 15:11:05;;;;;;;1999.90;999.90;;;13.80;76.20;;;;;;4957118;28;20047;-82
2022/02/06 15:13:33;;;;;;;1999.90;999.90;;;13.80;76.60;;;;;;4957054;28;20509;-81
2022/02/06 15:16:14;;;;;;;1999.90;999.90;;;13.80;76.30;;;;;;4942401;28;20039;-81